Stewart International Airport Newburgh US
ICAO: KSWF
IATA: SWF
Category: Medium
Scheduled Services: Yes

Elevation: 491 ft
TransAlt. 18000 ft.

Airport Communications:
105 AW COMD POST:37.94
ATIS:124.575
NEW YORK CNTR:132.75
GND:121.9
AR OPS:38.5
ARMY OPS:49.75
TWR:121
UNICOM:122.95

KSWF Zoom In..

Runways:

(A) RW 09 length 11817 ft width 150 ft
ILS 110.10 / hdg 92

(B) RW 16 length 6004 ft width 150 ft
---- / hdg 163

(C) RW 27 length 11817 ft width 150 ft
ILS 109.95 / hdg 272

(D) RW 34 length 6004 ft width 150 ft
---- / hdg 343

Location; KSWF
Day. 23 / Time. 02.45 Zulu
* Altimeter: 30.05
* Temperature: 23° c. 73.4°f.
* Wind from: 130° Speed 06 kn.
Dewpoint: 23° c.
Visibility: 4 Statute Miles.
Clouds: Broken 2000 ft.
Clouds: Overcast 3000 ft.
Conditions: Light Rain.Conditions: Mist.

KSWF 230245Z 13006KT 4SM -RA BR BKN020 OVC030 23/23 A3005


Wind From 130°
Speed 06 kn.

 
 
jpsmedia.com for Web Design worldairports.se 2018   terms of use